Time;durP1;ratioP1;P1;durP2;ratioP2;P2;SDS_P1;SDS_P2;PMS_P1;PMS_P2;Temp;Humidity;BMP_temperature;BMP_pressure;BME280_temperature;BME280_humidity;BME280_pressure;Samples;Min_cycle;Max_cycle;Signal;HPM_P1;HPM_P2
2021/03/08 00:02:23;;;;;;;7.10;4.13;;;;;;;-0.61;100.00;101214.28;5037200;28;20067;-66
2021/03/08 00:04:50;;;;;;;6.17;3.43;;;;;;;-0.68;100.00;101217.50;5040885;28;20047;-67
2021/03/08 00:07:16;;;;;;;6.00;3.10;;;;;;;-0.77;100.00;101221.50;5038971;28;20098;-67
2021/03/08 00:09:42;;;;;;;5.80;2.93;;;;;;;-0.88;100.00;101219.44;5045266;28;20044;-67
2021/03/08 00:12:09;;;;;;;5.67;3.00;;;;;;;-0.99;100.00;101214.69;5062904;28;20076;-66
2021/03/08 00:14:35;;;;;;;5.50;2.97;;;;;;;-1.09;100.00;101217.78;5037137;28;20086;-67
2021/03/08 00:17:04;;;;;;;4.67;3.10;;;;;;;-1.19;100.00;101222.63;5044640;28;20148;-66
2021/03/08 00:19:31;;;;;;;5.50;3.13;;;;;;;-1.30;100.00;101217.91;5046533;28;20048;-66
2021/03/08 00:21:58;;;;;;;5.27;3.67;;;;;;;-1.44;100.00;101223.44;5050685;28;20094;-67
2021/03/08 00:24:24;;;;;;;5.10;3.27;;;;;;;-1.53;100.00;101232.59;5033084;28;20402;-66
2021/03/08 00:26:50;;;;;;;5.87;3.03;;;;;;;-1.65;100.00;101222.66;5067693;28;20043;-67
2021/03/08 00:29:16;;;;;;;5.07;3.20;;;;;;;-1.78;100.00;101231.66;5048516;28;20041;-66
2021/03/08 00:31:42;;;;;;;6.10;2.93;;;;;;;-1.89;100.00;101232.97;5065552;28;20416;-66
2021/03/08 00:34:08;;;;;;;3.37;2.20;;;;;;;-2.00;100.00;101229.97;5063943;28;20541;-66
2021/03/08 00:36:34;;;;;;;4.77;2.50;;;;;;;-2.08;100.00;101233.97;5064233;28;20595;-66
2021/03/08 00:39:02;;;;;;;4.53;3.00;;;;;;;-2.14;100.00;101231.13;5047188;28;20068;-66
2021/03/08 00:41:28;;;;;;;4.83;3.37;;;;;;;-2.22;100.00;101235.09;5063356;28;20494;-66
2021/03/08 00:43:54;;;;;;;4.50;2.90;;;;;;;-2.32;100.00;101233.84;5057136;28;20044;-65
2021/03/08 00:46:20;;;;;;;6.10;3.10;;;;;;;-2.39;100.00;101241.31;5041217;28;20037;-66
2021/03/08 00:48:47;;;;;;;5.33;2.90;;;;;;;-2.46;100.00;101237.56;5023375;28;20045;-66
2021/03/08 00:51:13;;;;;;;5.30;2.50;;;;;;;-2.53;100.00;101237.25;5046479;28;20687;-65
2021/03/08 00:53:39;;;;;;;4.20;2.50;;;;;;;-2.60;100.00;101243.91;5049096;28;20113;-66
2021/03/08 00:56:05;;;;;;;4.87;2.87;;;;;;;-2.67;100.00;101247.06;5044831;28;20040;-66
2021/03/08 00:58:31;;;;;;;5.00;2.83;;;;;;;-2.72;100.00;101249.44;5051565;28;20456;-65
2021/03/08 01:00:57;;;;;;;5.07;2.57;;;;;;;-2.75;100.00;101246.72;5064305;28;20062;-66
2021/03/08 01:03:23;;;;;;;7.27;3.50;;;;;;;-2.80;100.00;101247.34;5044596;28;20086;-66
2021/03/08 01:05:50;;;;;;;6.33;3.10;;;;;;;-2.85;100.00;101247.16;5050589;28;20098;-65
2021/03/08 01:08:16;;;;;;;6.40;2.63;;;;;;;-2.90;100.00;101259.88;5058027;28;20311;-65
2021/03/08 01:10:43;;;;;;;5.50;3.17;;;;;;;-2.96;100.00;101251.84;5039976;28;20032;-65
2021/03/08 01:13:09;;;;;;;5.93;2.90;;;;;;;-3.00;100.00;101254.25;5058554;28;20033;-65
2021/03/08 01:15:35;;;;;;;5.33;2.83;;;;;;;-3.04;100.00;101253.22;5028252;28;20043;-65
2021/03/08 01:18:01;;;;;;;7.13;3.43;;;;;;;-3.07;100.00;101240.16;5057706;28;20053;-65
2021/03/08 01:20:27;;;;;;;6.67;3.33;;;;;;;-3.09;100.00;101252.13;5058657;28;20082;-64
2021/03/08 01:22:53;;;;;;;5.00;2.90;;;;;;;-3.18;100.00;101251.75;5044623;28;20504;-65
2021/03/08 01:25:26;;;;;;;5.93;2.50;;;;;;;-3.24;100.00;101251.47;5028545;28;20040;-65
2021/03/08 01:27:52;;;;;;;4.30;2.33;;;;;;;-3.32;100.00;101258.88;5045237;28;20079;-64
2021/03/08 01:30:24;;;;;;;5.30;2.87;;;;;;;-3.38;100.00;101265.44;5045109;28;20105;-64
2021/03/08 01:32:50;;;;;;;6.37;3.53;;;;;;;-3.45;100.00;101252.28;5047818;28;20207;-65
2021/03/08 01:35:17;;;;;;;5.07;2.57;;;;;;;-3.49;100.00;101258.09;5062588;28;20151;-65
2021/03/08 01:37:44;;;;;;;4.50;2.40;;;;;;;-3.54;100.00;101264.75;5046546;28;20070;-65
2021/03/08 01:40:12;;;;;;;5.03;2.73;;;;;;;-3.60;100.00;101256.75;5037934;28;20130;-65
2021/03/08 01:42:39;;;;;;;7.57;3.57;;;;;;;-3.65;100.00;101253.03;5028864;28;20482;-65
2021/03/08 01:45:06;;;;;;;6.77;2.53;;;;;;;-3.67;100.00;101261.53;5066177;28;20049;-65
2021/03/08 01:47:33;;;;;;;5.03;3.03;;;;;;;-3.70;100.00;101259.69;5029169;28;20039;-65
2021/03/08 01:49:59;;;;;;;4.87;2.60;;;;;;;-3.73;100.00;101259.56;5046707;28;20044;-65
2021/03/08 01:52:26;;;;;;;4.17;2.50;;;;;;;-3.80;100.00;101263.53;5065283;28;20041;-65
2021/03/08 01:54:53;;;;;;;5.37;2.80;;;;;;;-3.86;100.00;101257.22;5014581;28;20485;-65
2021/03/08 01:57:20;;;;;;;3.33;2.30;;;;;;;-3.89;100.00;101267.38;5047589;28;20563;-67
2021/03/08 01:59:46;;;;;;;4.70;3.00;;;;;;;-3.93;100.00;101257.75;5046079;28;20044;-65
2021/03/08 02:02:13;;;;;;;5.60;2.40;;;;;;;-3.98;100.00;101266.16;5044951;28;20037;-65
2021/03/08 02:04:39;;;;;;;5.43;2.67;;;;;;;-4.00;100.00;101266.88;5027831;28;20065;-67
2021/03/08 02:07:05;;;;;;;4.77;2.97;;;;;;;-4.05;100.00;101270.94;5036386;28;20101;-65
2021/03/08 02:09:31;;;;;;;5.20;2.90;;;;;;;-4.08;100.00;101260.47;5062436;28;20048;-65
2021/03/08 02:14:58;;;;;;;5.50;2.23;;;;;;;-4.21;100.00;101274.47;4996445;28;20036;-93
2021/03/08 02:17:34;;;;;;;5.57;2.87;;;;;;;-4.26;100.00;101274.25;5004177;28;20099;-93
2021/03/08 02:20:22;;;;;;;5.77;2.27;;;;;;;-4.31;100.00;101272.25;5011393;28;20033;-94
2021/03/08 02:23:20;;;;;;;8.07;2.97;;;;;;;-4.33;100.00;101279.03;5022594;28;20044;-94
2021/03/08 02:26:27;;;;;;;4.20;2.40;;;;;;;-4.39;100.00;101282.19;5025486;28;20025;-92
2021/03/08 02:29:30;;;;;;;5.68;2.50;;;;;;;-4.45;100.00;101271.59;5031306;28;20029;-93
2021/03/08 02:31:57;;;;;;;5.50;2.57;;;;;;;-4.43;100.00;101274.25;5044700;28;20049;-91
2021/03/08 02:34:30;;;;;;;5.97;2.60;;;;;;;-4.53;100.00;101276.38;5050743;28;20029;-93
2021/03/08 02:37:01;;;;;;;5.87;2.50;;;;;;;-4.57;100.00;101271.84;4996877;28;20041;-92
2021/03/08 02:39:30;;;;;;;4.93;2.60;;;;;;;-4.60;100.00;101270.84;5015233;28;20101;-94
2021/03/08 02:41:58;;;;;;;4.17;2.60;;;;;;;-4.61;100.00;101281.94;5033962;28;20036;-93
2021/03/08 02:44:29;;;;;;;5.67;3.30;;;;;;;-4.69;100.00;101278.09;5033766;28;20105;-93
2021/03/08 02:46:57;;;;;;;5.47;2.23;;;;;;;-4.73;100.00;101282.19;5018163;28;20026;-92
2021/03/08 02:49:27;;;;;;;4.37;2.27;;;;;;;-4.76;100.00;101289.78;5016892;28;20026;-94
2021/03/08 02:52:10;;;;;;;3.37;2.30;;;;;;;-4.81;100.00;101294.69;5016116;28;20102;-92
2021/03/08 02:54:42;;;;;;;4.77;2.37;;;;;;;-4.84;100.00;101294.53;5026305;28;20214;-95
2021/03/08 02:57:11;;;;;;;4.13;2.20;;;;;;;-4.89;100.00;101298.56;4993380;28;20045;-94
2021/03/08 02:59:42;;;;;;;4.43;2.40;;;;;;;-4.92;100.00;101298.41;5013263;28;20198;-94
2021/03/08 03:02:11;;;;;;;4.20;2.30;;;;;;;-4.96;100.00;101301.66;5031611;28;20064;-94
2021/03/08 03:04:39;;;;;;;6.00;2.43;;;;;;;-4.97;100.00;101298.97;5001722;28;20174;-93
2021/03/08 03:07:07;;;;;;;4.13;2.27;;;;;;;-5.00;100.00;101296.25;5007240;28;20097;-94
2021/03/08 03:09:36;;;;;;;3.03;2.03;;;;;;;-5.04;100.00;101305.53;5003798;28;20096;-94
2021/03/08 03:12:03;;;;;;;4.30;2.03;;;;;;;-5.05;100.00;101308.00;5003577;28;20054;-93
2021/03/08 03:14:32;;;;;;;4.30;2.37;;;;;;;-5.13;100.00;101310.16;5001552;28;20034;-95
2021/03/08 03:17:02;;;;;;;3.83;2.00;;;;;;;-5.18;100.00;101307.38;5024159;28;20037;-94
2021/03/08 03:19:30;;;;;;;4.63;2.30;;;;;;;-5.16;100.00;101312.59;5001457;28;20026;-93
2021/03/08 03:21:59;;;;;;;6.07;2.00;;;;;;;-5.24;100.00;101312.19;5022112;28;20030;-92
2021/03/08 03:24:26;;;;;;;3.63;1.77;;;;;;;-5.27;100.00;101314.59;4986093;28;20018;-92
2021/03/08 03:26:58;;;;;;;5.53;2.53;;;;;;;-5.29;100.00;101323.06;4988547;28;20030;-93
2021/03/08 03:29:28;;;;;;;4.23;1.67;;;;;;;-5.33;100.00;101324.56;5009583;28;20030;-92
2021/03/08 03:31:55;;;;;;;3.00;1.70;;;;;;;-5.41;100.00;101316.44;5023453;28;20057;-93
2021/03/08 03:34:22;;;;;;;2.93;2.07;;;;;;;-5.40;100.00;101322.47;5001301;28;20026;-93
2021/03/08 03:36:52;;;;;;;3.43;1.90;;;;;;;-5.41;100.00;101318.13;4989831;28;20106;-92
2021/03/08 03:39:23;;;;;;;3.70;2.40;;;;;;;-5.43;100.00;101322.31;5020367;28;20030;-92
2021/03/08 03:41:55;;;;;;;5.07;2.73;;;;;;;-5.44;100.00;101325.69;5006684;28;20026;-94
2021/03/08 03:44:24;;;;;;;3.50;2.00;;;;;;;-5.48;100.00;101316.00;5022419;28;20021;-92
2021/03/08 03:46:51;;;;;;;6.03;1.97;;;;;;;-5.44;100.00;101328.25;5005443;28;20022;-94
2021/03/08 03:49:18;;;;;;;3.83;1.73;;;;;;;-5.50;100.00;101335.66;5035872;28;20027;-94
2021/03/08 03:51:47;;;;;;;4.47;1.97;;;;;;;-5.55;100.00;101334.50;5009365;28;20105;-93
2021/03/08 03:54:14;;;;;;;5.60;2.30;;;;;;;-5.61;100.00;101329.03;5025770;28;20058;-93
2021/03/08 03:56:53;;;;;;;4.47;2.13;;;;;;;-5.64;100.00;101341.72;5022114;28;20060;-93
2021/03/08 03:59:25;;;;;;;4.83;2.30;;;;;;;-5.67;100.00;101345.91;5020469;28;20036;-94
2021/03/08 04:02:02;;;;;;;6.47;2.38;;;;;;;-5.69;100.00;101352.66;5009574;28;20025;-91
2021/03/08 04:04:36;;;;;;;4.73;2.00;;;;;;;-5.73;100.00;101345.56;5038374;28;20053;-93
2021/03/08 04:07:04;;;;;;;3.20;1.90;;;;;;;-5.76;100.00;101347.97;5021555;28;20022;-92
2021/03/08 04:09:35;;;;;;;3.13;1.77;;;;;;;-5.76;100.00;101355.69;5032127;28;20032;-92
2021/03/08 04:12:07;;;;;;;3.70;2.00;;;;;;;-5.80;100.00;101342.53;5032234;28;20025;-91
2021/03/08 04:14:34;;;;;;;5.93;2.10;;;;;;;-5.86;100.00;101348.25;5012745;28;20037;-92
2021/03/08 04:17:01;;;;;;;3.23;1.90;;;;;;;-5.90;100.00;101361.72;5004910;28;20076;-94
2021/03/08 04:19:33;;;;;;;3.53;1.80;;;;;;;-5.88;100.00;101362.72;5016740;28;20030;-93
2021/03/08 04:22:04;;;;;;;3.97;1.90;;;;;;;-5.92;100.00;101365.94;5021680;28;20033;-93
2021/03/08 04:24:31;;;;;;;4.10;1.57;;;;;;;-5.98;100.00;101365.59;5008782;28;20039;-91
2021/03/08 04:27:06;;;;;;;2.67;1.47;;;;;;;-6.02;100.00;101368.81;5029319;28;20068;-93
2021/03/08 04:29:42;;;;;;;4.37;1.63;;;;;;;-6.09;100.00;101376.97;5007164;28;20026;-93
2021/03/08 04:32:14;;;;;;;3.20;1.90;;;;;;;-6.14;100.00;101381.81;5041251;28;20068;-92
2021/03/08 04:34:41;;;;;;;5.33;1.97;;;;;;;-6.18;100.00;101377.31;4996634;28;20041;-91
2021/03/08 04:37:08;;;;;;;2.73;2.17;;;;;;;-6.18;100.00;101389.28;5045142;23;20052;-69
2021/03/08 04:39:37;;;;;;;2.27;1.30;;;;;;;-6.22;100.00;101390.81;5048533;28;20060;-69
2021/03/08 04:42:05;;;;;;;4.23;1.90;;;;;;;-6.26;100.00;101391.41;5061360;28;20101;-68
2021/03/08 04:44:33;;;;;;;3.40;1.63;;;;;;;-6.30;100.00;101395.50;5067969;28;20534;-68
2021/03/08 04:47:00;;;;;;;3.30;1.80;;;;;;;-6.32;100.00;101389.34;5066250;28;20040;-68
2021/03/08 04:49:26;;;;;;;3.47;1.87;;;;;;;-6.35;100.00;101406.31;5036095;28;20051;-69
2021/03/08 04:51:52;;;;;;;3.07;1.70;;;;;;;-6.40;100.00;101389.69;5053216;28;20313;-68
2021/03/08 04:54:19;;;;;;;3.33;1.93;;;;;;;-6.43;100.00;101408.41;5083488;28;20400;-68
2021/03/08 04:56:47;;;;;;;4.33;1.63;;;;;;;-6.48;100.00;101406.34;5053745;28;20036;-68
2021/03/08 04:59:13;;;;;;;6.40;1.57;;;;;;;-6.52;100.00;101403.63;5035055;28;20439;-68
2021/03/08 05:01:41;;;;;;;3.53;2.10;;;;;;;-6.54;100.00;101401.75;5067479;28;20032;-69
2021/03/08 05:04:08;;;;;;;3.73;1.60;;;;;;;-6.55;100.00;101407.69;5068787;28;20086;-68
2021/03/08 05:06:39;;;;;;;4.03;2.10;;;;;;;-6.58;100.00;101408.38;5081915;28;20040;-69
2021/03/08 05:09:08;;;;;;;2.87;1.43;;;;;;;-6.61;100.00;101404.75;5089642;28;20105;-68
2021/03/08 05:11:38;;;;;;;4.17;1.80;;;;;;;-6.65;100.00;101411.38;5069415;28;20926;-68
2021/03/08 05:14:07;;;;;;;3.23;1.97;;;;;;;-6.69;100.00;101411.09;5065165;28;20040;-68
2021/03/08 05:16:37;;;;;;;4.13;1.70;;;;;;;-6.71;100.00;101415.28;5067172;28;20039;-68
2021/03/08 05:19:04;;;;;;;2.90;1.53;;;;;;;-6.74;100.00;101420.22;5069430;28;20694;-68
2021/03/08 05:21:33;;;;;;;4.90;1.73;;;;;;;-6.78;100.00;101418.25;5069128;28;20066;-68
2021/03/08 05:24:00;;;;;;;4.77;2.00;;;;;;;-6.82;100.00;101418.06;5069621;28;20385;-68
2021/03/08 05:26:26;;;;;;;3.03;1.70;;;;;;;-6.82;100.00;101418.06;5068534;28;20036;-69
2021/03/08 05:28:54;;;;;;;3.63;1.70;;;;;;;-6.85;100.00;101423.00;5050868;28;20600;-68
2021/03/08 05:31:21;;;;;;;4.50;1.73;;;;;;;-6.86;100.00;101436.66;5069035;28;20052;-68
2021/03/08 05:33:51;;;;;;;2.73;1.60;;;;;;;-6.89;100.00;101436.47;5067818;28;20044;-68
2021/03/08 05:36:18;;;;;;;4.70;1.77;;;;;;;-6.91;100.00;101442.28;5068160;28;20445;-69
2021/03/08 05:38:45;;;;;;;3.60;1.43;;;;;;;-6.94;100.00;101439.56;5067657;28;20036;-68
2021/03/08 05:41:32;;;;;;;3.10;1.80;;;;;;;-6.98;100.00;101443.59;5069457;28;20124;-68
2021/03/08 05:44:04;;;;;;;2.70;1.60;;;;;;;-7.01;100.00;101443.41;5068683;28;20051;-68
2021/03/08 05:46:41;;;;;;;2.87;1.70;;;;;;;-7.02;100.00;101439.06;5051611;28;20036;-68
2021/03/08 05:49:35;;;;;;;3.07;1.50;;;;;;;-7.03;100.00;101445.00;5052211;28;20043;-68
2021/03/08 05:52:20;;;;;;;2.90;1.60;;;;;;;-7.04;100.00;101450.94;5065874;28;20036;-68
2021/03/08 05:54:52;;;;;;;2.53;1.97;;;;;;;-7.02;100.00;101454.47;5068736;28;20036;-68
2021/03/08 05:57:56;;;;;;;5.23;2.70;;;;;;;-7.00;100.00;101454.56;5077988;28;20036;-68
2021/03/08 06:00:27;;;;;;;3.80;1.80;;;;;;;-7.01;100.00;101460.50;5062468;28;20067;-68
2021/03/08 06:02:59;;;;;;;3.87;1.70;;;;;;;-7.02;100.00;101461.28;5066088;28;20337;-68
2021/03/08 06:05:50;;;;;;;4.60;2.00;;;;;;;-7.02;100.00;101462.19;5080024;28;20093;-68
2021/03/08 06:08:40;;;;;;;3.47;1.77;;;;;;;-7.01;100.00;101470.78;5066591;28;20125;-67
2021/03/08 06:11:11;;;;;;;7.47;2.50;;;;;;;-7.03;100.00;101473.25;5076372;28;20071;-67
2021/03/08 06:13:45;;;;;;;4.83;1.87;;;;;;;-7.01;100.00;101473.34;5081995;28;20184;-67
2021/03/08 06:16:22;;;;;;;3.13;1.70;;;;;;;-7.00;100.00;101481.13;5066705;28;20044;-67
2021/03/08 06:18:50;;;;;;;3.27;1.67;;;;;;;-6.97;100.00;101477.91;5070494;28;20047;-67
2021/03/08 06:21:17;;;;;;;3.30;1.87;;;;;;;-6.94;100.00;101483.22;5063164;28;20085;-67
2021/03/08 06:23:45;;;;;;;3.83;2.00;;;;;;;-6.91;100.00;101491.09;5068472;28;20035;-67
2021/03/08 06:26:12;;;;;;;4.80;3.00;;;;;;;-6.89;100.00;101495.56;5066633;28;20032;-67
2021/03/08 06:28:38;;;;;;;3.77;2.00;;;;;;;-6.86;100.00;101500.88;5049231;28;20089;-67
2021/03/08 06:31:05;;;;;;;3.83;2.03;;;;;;;-6.84;100.00;101508.69;5083564;28;20043;-67
2021/03/08 06:33:50;;;;;;;3.00;1.70;;;;;;;-6.78;100.00;101514.22;5070921;28;20439;-67
2021/03/08 06:36:17;;;;;;;4.70;1.77;;;;;;;-6.74;100.00;101520.41;5066697;28;21871;-67
2021/03/08 06:38:43;;;;;;;4.47;2.00;;;;;;;-6.70;100.00;101513.00;5080680;28;20093;-67
2021/03/08 06:41:09;;;;;;;3.23;1.70;;;;;;;-6.64;100.00;101528.81;5064131;28;20569;-67
2021/03/08 06:43:36;;;;;;;2.90;1.80;;;;;;;-6.58;100.00;101523.16;5083294;28;20577;-67
2021/03/08 06:46:03;;;;;;;5.53;1.93;;;;;;;-6.54;100.00;101531.16;5033091;28;20077;-66
2021/03/08 06:48:30;;;;;;;2.67;1.90;;;;;;;-6.48;100.00;101543.47;5066887;28;20374;-67
2021/03/08 06:51:13;;;;;;;6.93;3.70;;;;;;;-6.38;100.00;101544.97;5065664;28;20036;-67
2021/03/08 06:53:40;;;;;;;10.27;4.93;;;;;;;-6.33;100.00;101547.00;5024491;28;20094;-67
2021/03/08 06:56:31;;;;;;;7.40;3.67;;;;;;;-6.24;100.00;101550.13;5048190;28;20052;-67
2021/03/08 06:59:13;;;;;;;7.90;3.60;;;;;;;-6.13;100.00;101558.53;5089880;28;20089;-70
2021/03/08 07:02:12;;;;;;;5.97;2.23;;;;;;;-6.02;100.00;101562.63;5082451;28;20055;-69
2021/03/08 07:04:44;;;;;;;4.90;2.20;;;;;;;-5.91;100.00;101572.66;5061939;28;20032;-69
2021/03/08 07:07:11;;;;;;;3.63;1.80;;;;;;;-5.82;100.00;101563.78;5063329;28;20081;-69
2021/03/08 07:09:48;;;;;;;2.57;1.70;;;;;;;-5.72;100.00;101571.25;5064962;28;20498;-70
2021/03/08 07:12:14;;;;;;;5.40;2.17;;;;;;;-5.53;100.00;101565.50;5093888;28;20077;-69
2021/03/08 07:14:42;;;;;;;4.63;2.07;;;;;;;-5.33;100.00;101579.53;5064757;28;20040;-69
2021/03/08 07:17:30;;;;;;;4.13;2.40;;;;;;;-5.20;100.00;101576.88;5047642;28;20075;-69
2021/03/08 07:19:58;;;;;;;6.20;2.43;;;;;;;-5.11;100.00;101579.09;5057779;28;20066;-70
2021/03/08 07:22:39;;;;;;;4.33;2.37;;;;;;;-4.97;100.00;101585.88;5040876;28;20036;-69
2021/03/08 07:25:07;;;;;;;4.37;2.53;;;;;;;-4.72;100.00;101582.13;5062203;28;20235;-69
2021/03/08 07:27:43;;;;;;;6.57;2.53;;;;;;;-3.54;100.00;101584.13;5060981;28;20071;-69
2021/03/08 07:30:13;;;;;;;9.93;3.23;;;;;;;-1.73;100.00;101587.63;5094620;28;20032;-69
2021/03/08 07:33:00;;;;;;;5.27;2.83;;;;;;;0.19;100.00;101575.44;5066942;28;20472;-70
2021/03/08 07:35:36;;;;;;;8.23;2.83;;;;;;;2.14;100.00;101579.16;5084293;28;20040;-70
2021/03/08 07:38:04;;;;;;;6.87;2.60;;;;;;;3.52;100.00;101574.84;5050838;28;20044;-70
2021/03/08 07:40:31;;;;;;;3.53;1.80;;;;;;;4.79;100.00;101578.31;5051829;28;20720;-71
2021/03/08 07:42:57;;;;;;;3.13;1.40;;;;;;;5.98;88.87;101574.06;5042424;28;20075;-71
2021/03/08 07:45:40;;;;;;;2.20;1.40;;;;;;;7.32;83.79;101573.69;5043143;28;20052;-71
2021/03/08 07:48:08;;;;;;;1.92;1.30;;;;;;;8.23;72.15;101580.31;5046624;28;20070;-71
2021/03/08 07:50:35;;;;;;;2.53;1.60;;;;;;;9.24;65.79;101570.88;5087097;28;20655;-71
2021/03/08 07:53:01;;;;;;;2.83;1.50;;;;;;;10.02;60.47;101573.38;5049398;28;20102;-72
2021/03/08 07:55:37;;;;;;;1.77;1.23;;;;;;;10.61;58.16;101572.25;5066794;28;20040;-72
2021/03/08 07:58:03;;;;;;;2.45;1.15;;;;;;;11.39;53.20;101579.56;5065230;28;20036;-72
2021/03/08 08:00:31;;;;;;;2.20;1.45;;;;;;;11.73;52.44;101582.75;5068907;28;20040;-72
2021/03/08 08:02:58;;;;;;;2.33;1.30;;;;;;;12.77;48.90;101583.25;5059464;28;20667;-72
2021/03/08 08:05:24;;;;;;;2.05;1.50;;;;;;;13.01;48.45;101582.88;5080860;28;20039;-72
2021/03/08 08:07:51;;;;;;;2.58;1.20;;;;;;;13.30;47.44;101578.91;5062101;28;20047;-72
2021/03/08 08:10:18;;;;;;;2.70;1.40;;;;;;;14.14;46.52;101577.34;5047128;28;20090;-73
2021/03/08 08:12:49;;;;;;;1.60;1.10;;;;;;;14.00;45.55;101581.13;5063609;28;20044;-72
2021/03/08 08:15:20;;;;;;;1.70;1.20;;;;;;;13.78;40.43;101583.31;5079238;28;20037;-72
2021/03/08 08:17:47;;;;;;;1.20;1.05;;;;;;;15.05;41.78;101585.03;5081194;28;20036;-72
2021/03/08 08:20:14;;;;;;;1.98;1.38;;;;;;;14.73;43.40;101583.16;5042705;28;20456;-72
2021/03/08 08:22:55;;;;;;;1.20;1.02;;;;;;;15.25;37.96;101579.25;5077640;28;20101;-72
2021/03/08 08:25:22;;;;;;;3.10;1.52;;;;;;;14.71;33.26;101584.97;5077847;28;20077;-72
2021/03/08 08:27:48;;;;;;;2.70;1.33;;;;;;;14.45;40.36;101594.41;5059841;28;20086;-72
2021/03/08 08:30:16;;;;;;;3.63;1.20;;;;;;;15.45;36.90;101582.25;5062247;28;20095;-72
2021/03/08 08:32:50;;;;;;;1.77;1.17;;;;;;;16.24;38.90;101587.25;5052367;28;20078;-72
2021/03/08 08:35:32;;;;;;;1.73;1.17;;;;;;;15.76;34.46;101583.25;5082650;28;20028;-73
2021/03/08 08:38:20;;;;;;;2.13;1.48;;;;;;;16.40;31.06;101588.53;5074816;28;20520;-73
2021/03/08 08:41:20;;;;;;;2.67;1.95;;;;;;;14.63;31.43;101594.03;5085470;28;20051;-73
2021/03/08 08:43:48;;;;;;;20.10;12.48;;;;;;;16.05;33.34;101597.53;5084349;28;20031;-72
2021/03/08 08:46:25;;;;;;;2.65;1.77;;;;;;;15.73;36.71;101599.31;5061490;28;20040;-72
2021/03/08 08:49:06;;;;;;;1.63;0.93;;;;;;;16.48;30.25;101594.53;5068784;28;20079;-72
2021/03/08 08:51:53;;;;;;;1.63;0.90;;;;;;;17.02;30.43;101598.22;5050215;28;20032;-72
2021/03/08 08:54:26;;;;;;;2.80;1.02;;;;;;;17.27;33.81;101593.81;5091420;28;20131;-72
2021/03/08 08:56:53;;;;;;;1.83;1.00;;;;;;;17.93;29.75;101588.88;5088229;28;20040;-72
2021/03/08 08:59:20;;;;;;;1.83;0.90;;;;;;;16.18;27.74;101595.41;5054280;28;20040;-72
2021/03/08 09:01:47;;;;;;;1.50;0.95;;;;;;;16.54;32.43;101605.00;5069213;28;20043;-72
2021/03/08 09:04:18;;;;;;;0.82;0.63;;;;;;;16.07;27.26;101605.53;5074492;28;20658;-72
2021/03/08 09:06:59;;;;;;;1.67;1.00;;;;;;;16.06;32.22;101609.97;5068205;28;20051;-72
2021/03/08 09:09:32;;;;;;;1.92;0.95;;;;;;;17.71;28.26;101594.13;5087777;22;20041;-67
2021/03/08 09:12:06;;;;;;;2.28;1.02;;;;;;;17.14;28.05;101595.13;5046197;28;20509;-67
2021/03/08 09:14:36;;;;;;;1.38;0.90;;;;;;;19.01;25.75;101590.09;5044816;28;20068;-67
2021/03/08 09:17:08;;;;;;;1.80;1.00;;;;;;;19.37;27.48;101587.69;5031071;28;20033;-67
2021/03/08 09:19:35;;;;;;;1.45;0.88;;;;;;;19.16;24.01;101593.91;5061334;28;20080;-67
2021/03/08 09:22:20;;;;;;;2.55;1.20;;;;;;;18.71;24.14;101604.69;5029501;28;20128;-67
2021/03/08 09:24:47;;;;;;;1.42;1.20;;;;;;;20.38;24.47;101603.81;5037071;28;20044;-67
2021/03/08 09:27:26;;;;;;;1.40;1.15;;;;;;;20.47;25.33;101600.75;5046915;28;20037;-67
2021/03/08 09:29:53;;;;;;;1.88;1.00;;;;;;;20.56;22.35;101605.66;5019712;28;20095;-67
2021/03/08 09:32:20;;;;;;;2.28;0.93;;;;;;;21.29;26.21;101607.50;5036129;28;20154;-67
2021/03/08 09:34:46;;;;;;;1.60;1.00;;;;;;;20.76;25.13;101610.94;5033686;28;20158;-67
2021/03/08 09:37:13;;;;;;;1.75;0.80;;;;;;;20.97;21.10;101610.88;5013810;28;20040;-67
2021/03/08 09:39:49;;;;;;;2.53;1.55;;;;;;;20.75;22.97;101606.53;5030184;28;20860;-67
2021/03/08 09:42:16;;;;;;;1.17;0.80;;;;;;;20.86;20.63;101610.53;5009703;28;20098;-67
2021/03/08 09:44:43;;;;;;;1.35;0.80;;;;;;;19.00;20.12;101615.13;5012625;28;20052;-67
2021/03/08 09:47:09;;;;;;;2.22;0.98;;;;;;;17.58;24.39;101608.81;5016398;28;20403;-67
2021/03/08 09:49:55;;;;;;;1.77;0.80;;;;;;;19.41;24.91;101613.41;5033708;28;20613;-67
2021/03/08 09:52:38;;;;;;;1.45;0.77;;;;;;;19.21;22.17;101612.50;5047977;28;20106;-67
2021/03/08 09:55:08;;;;;;;2.03;0.80;;;;;;;21.24;22.80;101609.50;5027947;28;20087;-67
2021/03/08 09:57:39;;;;;;;1.75;1.02;;;;;;;21.40;21.37;101606.09;5010842;28;20076;-67
2021/03/08 10:00:06;;;;;;;3.20;1.00;;;;;;;21.16;20.37;101611.72;5028473;28;20041;-67
2021/03/08 10:02:33;;;;;;;2.95;0.80;;;;;;;21.03;18.57;101608.78;5052650;28;20041;-66
2021/03/08 10:05:00;;;;;;;1.63;0.82;;;;;;;21.59;19.07;101620.34;5037804;28;20083;-67
2021/03/08 10:07:27;;;;;;;2.78;1.50;;;;;;;21.92;18.33;101613.19;5025208;28;20138;-66
2021/03/08 10:10:14;;;;;;;1.92;1.83;;;;;;;20.25;21.65;101623.16;5042857;28;20044;-67
2021/03/08 10:12:41;;;;;;;1.73;1.00;;;;;;;19.98;20.22;101610.97;5029241;28;20053;-67
2021/03/08 10:15:10;;;;;;;1.75;0.82;;;;;;;20.88;19.65;101617.56;5009118;28;20091;-67
2021/03/08 10:17:53;;;;;;;3.88;3.58;;;;;;;20.40;17.76;101615.34;4994249;28;20574;-67
2021/03/08 10:20:19;;;;;;;2.85;1.27;;;;;;;20.98;20.01;101608.13;5029958;28;20556;-67
2021/03/08 10:22:46;;;;;;;1.83;1.35;;;;;;;20.86;18.67;101607.84;5047957;28;20071;-66
2021/03/08 10:25:30;;;;;;;4.03;3.63;;;;;;;22.17;16.76;101607.41;5026309;28;20033;-67
2021/03/08 10:28:00;;;;;;;;;;;;;;;21.03;18.72;101605.22;5052583;28;20052;-67
2021/03/08 10:30:28;;;;;;;1.50;1.00;;;;;;;19.98;19.49;101604.75;5054652;28;19929;-67
2021/03/08 10:33:17;;;;;;;1.90;0.80;;;;;;;18.47;19.75;101603.81;5024695;28;20045;-67
2021/03/08 10:35:53;;;;;;;1.38;0.80;;;;;;;20.20;18.89;101600.16;5014061;28;20544;-67
2021/03/08 10:38:34;;;;;;;1.05;0.65;;;;;;;20.55;17.26;101605.75;5027622;28;20040;-67
2021/03/08 10:41:02;;;;;;;1.63;1.20;;;;;;;20.28;17.05;101599.81;5042786;28;20486;-67
2021/03/08 10:43:29;;;;;;;1.15;0.82;;;;;;;19.28;19.53;101605.97;5027307;28;20053;-67
2021/03/08 10:45:58;;;;;;;0.82;0.70;;;;;;;18.63;18.15;101599.59;5028332;28;20051;-67
2021/03/08 10:48:25;;;;;;;1.27;0.80;;;;;;;18.74;17.62;101596.53;5012985;28;20052;-67
2021/03/08 10:50:56;;;;;;;1.33;0.70;;;;;;;17.78;18.50;101598.31;5027960;28;20559;-67
2021/03/08 10:53:54;;;;;;;1.38;0.70;;;;;;;19.31;16.73;101608.50;5044719;28;20123;-67
2021/03/08 10:56:20;;;;;;;2.78;1.08;;;;;;;18.52;18.64;101612.53;5044281;28;20037;-66
2021/03/08 10:58:46;;;;;;;1.35;0.80;;;;;;;18.67;17.29;101609.31;5014942;28;20191;-67
2021/03/08 11:01:13;;;;;;;1.50;0.70;;;;;;;16.47;17.25;101602.53;5030982;28;20514;-66
2021/03/08 11:03:40;;;;;;;1.70;0.63;;;;;;;19.38;20.02;101597.47;5045369;28;20116;-66
2021/03/08 11:06:07;;;;;;;1.25;0.60;;;;;;;20.79;19.96;101600.09;5062347;28;20037;-67
2021/03/08 11:08:39;;;;;;;1.33;0.90;;;;;;;19.03;16.43;101606.09;5031328;28;20048;-66
2021/03/08 11:11:19;;;;;;;1.92;0.75;;;;;;;20.00;19.20;101597.50;5044531;28;20409;-66
2021/03/08 11:13:46;;;;;;;1.35;0.90;;;;;;;20.96;19.45;101593.91;5012884;28;20120;-67
2021/03/08 11:16:19;;;;;;;1.23;0.60;;;;;;;21.86;17.21;101589.34;5049101;28;20063;-67
2021/03/08 11:18:51;;;;;;;0.90;0.90;;;;;;;22.42;17.53;101595.31;5037742;28;20049;-67
2021/03/08 11:21:33;;;;;;;2.13;0.98;;;;;;;21.92;15.74;101597.06;5012213;28;20047;-66
2021/03/08 11:24:16;;;;;;;0.90;0.70;;;;;;;21.42;14.48;101602.38;5043708;28;20109;-67
2021/03/08 11:27:23;;;;;;;1.33;0.80;;;;;;;19.60;16.32;101602.81;5043446;28;20053;-67
2021/03/08 11:30:05;;;;;;;1.63;0.90;;;;;;;20.55;17.32;101601.25;5040868;28;20295;-66
2021/03/08 11:32:33;;;;;;;1.35;0.80;;;;;;;21.35;17.35;101604.50;5027274;28;20402;-67
2021/03/08 11:35:15;;;;;;;1.23;0.75;;;;;;;17.85;16.98;101607.88;5013314;28;20169;-67
2021/03/08 11:38:09;;;;;;;0.80;0.80;;;;;;;19.08;17.83;101612.13;5030974;28;20039;-66
2021/03/08 11:40:36;;;;;;;1.35;0.80;;;;;;;17.79;16.48;101601.88;5047822;28;20114;-67
2021/03/08 11:43:03;;;;;;;2.28;0.70;;;;;;;19.16;19.24;101606.44;5017904;28;20052;-66